Time;durP1;ratioP1;P1;durP2;ratioP2;P2;SDS_P1;SDS_P2;PMS_P1;PMS_P2;Temp;Humidity;BMP_temperature;BMP_pressure;BME280_temperature;BME280_humidity;BME280_pressure;Samples;Min_cycle;Max_cycle;Signal;HPM_P1;HPM_P2
2022/11/16 00:00:13;;;;;;;51.40;33.90;;;6.40;1.00;;;;;;6286060;28;20710;-55
2022/11/16 00:03:17;;;;;;;55.63;35.13;;;6.40;1.00;;;;;;6286165;28;20249;-53
2022/11/16 00:06:21;;;;;;;57.63;33.67;;;6.40;1.00;;;;;;6286379;28;21221;-54
2022/11/16 00:09:28;;;;;;;55.30;34.30;;;6.70;1.00;;;;;;6300831;28;20716;-54
2022/11/16 00:12:37;;;;;;;52.10;32.97;;;6.50;1.00;;;;;;6302751;28;20263;-54
2022/11/16 00:15:40;;;;;;;53.73;33.40;;;6.40;1.00;;;;;;6310509;28;20236;-53
2022/11/16 00:18:43;;;;;;;49.70;32.13;;;6.30;1.00;;;;;;6310170;28;20697;-54
2022/11/16 00:21:46;;;;;;;66.83;33.60;;;6.40;1.00;;;;;;6295757;27;20229;-52
2022/11/16 00:24:51;;;;;;;53.00;32.23;;;6.50;1.00;;;;;;6286095;28;20583;-54
2022/11/16 00:27:54;;;;;;;49.87;31.30;;;6.40;1.00;;;;;;6285998;28;20244;-54
2022/11/16 00:31:01;;;;;;;52.30;30.93;;;6.20;1.00;;;;;;6285809;28;20229;-54
2022/11/16 00:34:04;;;;;;;49.50;31.70;;;6.40;1.00;;;;;;6286437;28;20717;-53
2022/11/16 00:37:07;;;;;;;53.60;31.43;;;6.20;1.00;;;;;;6289372;28;20607;-54
2022/11/16 00:40:12;;;;;;;63.10;31.80;;;6.30;1.00;;;;;;6295537;28;20236;-52
2022/11/16 00:43:15;;;;;;;52.67;30.83;;;6.10;1.00;;;;;;6310110;28;20235;-54
2022/11/16 00:46:18;;;;;;;56.03;31.17;;;6.30;1.00;;;;;;6302746;28;20240;-55
2022/11/16 00:49:23;;;;;;;48.30;31.27;;;6.30;1.00;;;;;;6284358;28;20400;-54
2022/11/16 00:52:26;;;;;;;53.27;29.60;;;6.20;1.00;;;;;;6284259;28;20599;-53
2022/11/16 00:55:30;;;;;;;56.60;32.03;;;6.20;1.00;;;;;;6284219;28;20344;-53
2022/11/16 00:58:33;;;;;;;54.13;31.33;;;6.00;1.00;;;;;;6284126;28;20347;-54
2022/11/16 01:01:36;;;;;;;51.37;30.90;;;6.20;1.00;;;;;;6298015;28;20632;-53
2022/11/16 01:04:39;;;;;;;46.77;31.07;;;6.10;1.00;;;;;;6311038;28;20240;-53
2022/11/16 01:07:42;;;;;;;56.10;30.97;;;6.00;1.00;;;;;;6301866;27;20235;-53
2022/11/16 01:10:50;;;;;;;47.97;31.60;;;6.00;1.00;;;;;;6281221;28;20241;-54
2022/11/16 01:13:52;;;;;;;51.23;31.80;;;6.20;1.00;;;;;;6289911;28;20821;-54
2022/11/16 01:17:09;;;;;;;52.13;32.73;;;6.10;1.00;;;;;;6282375;28;20864;-54
2022/11/16 01:20:14;;;;;;;49.53;32.00;;;6.40;1.00;;;;;;6284448;28;20242;-54
2022/11/16 01:23:17;;;;;;;50.53;31.07;;;6.20;1.00;;;;;;6283055;28;20245;-53
2022/11/16 01:26:22;;;;;;;50.87;31.63;;;6.10;1.00;;;;;;6284398;28;20244;-53
2022/11/16 01:29:31;;;;;;;50.63;31.90;;;6.20;1.00;;;;;;6282940;28;20237;-53
2022/11/16 01:32:35;;;;;;;45.97;30.93;;;6.10;1.00;;;;;;6284056;28;20241;-54
2022/11/16 01:35:38;;;;;;;57.17;33.20;;;6.20;1.00;;;;;;6284067;28;20233;-53
2022/11/16 01:38:42;;;;;;;48.03;30.17;;;6.20;1.00;;;;;;6296277;28;20633;-54
2022/11/16 01:41:47;;;;;;;47.27;30.03;;;6.20;1.00;;;;;;6293101;28;20240;-54
2022/11/16 01:45:17;;;;;;;47.73;30.60;;;6.20;1.00;;;;;;6283987;28;20520;-53
2022/11/16 01:48:29;;;;;;;55.77;32.03;;;6.30;1.00;;;;;;6285618;28;20242;-54
2022/11/16 01:51:42;;;;;;;50.70;30.83;;;6.40;1.00;;;;;;6308437;28;20237;-53
2022/11/16 01:54:48;;;;;;;50.63;30.97;;;6.10;1.00;;;;;;6283990;28;20620;-54
2022/11/16 01:57:52;;;;;;;48.67;32.07;;;6.10;1.00;;;;;;6271293;28;20237;-53
2022/11/16 02:00:55;;;;;;;49.80;30.17;;;6.20;1.00;;;;;;6290604;28;20260;-53
2022/11/16 02:04:00;;;;;;;48.30;30.10;;;6.10;1.00;;;;;;6284081;28;20241;-53
2022/11/16 02:07:15;;;;;;;48.83;31.33;;;6.10;1.00;;;;;;6288037;28;20603;-54
2022/11/16 02:10:31;;;;;;;48.87;30.53;;;6.20;1.00;;;;;;6292431;28;20304;-53
2022/11/16 02:13:45;;;;;;;47.17;28.87;;;6.10;1.00;;;;;;6300688;28;20591;-52
2022/11/16 02:16:56;;;;;;;46.17;29.33;;;5.90;1.00;;;;;;6308162;28;20308;-53
2022/11/16 02:20:22;;;;;;;47.80;29.73;;;6.20;1.00;;;;;;6291649;28;20241;-52
2022/11/16 02:23:58;;;;;;;47.63;29.00;;;6.00;1.00;;;;;;6270325;28;20238;-52
2022/11/16 02:27:36;;;;;;;48.67;29.50;;;6.10;1.00;;;;;;6258028;28;20247;-53
2022/11/16 02:30:44;;;;;;;45.53;28.93;;;6.30;1.00;;;;;;6291165;28;20230;-53
2022/11/16 02:33:50;;;;;;;49.10;30.03;;;6.10;1.00;;;;;;6282885;28;20234;-53
2022/11/16 02:36:56;;;;;;;48.90;29.13;;;5.90;1.00;;;;;;6286291;28;20220;-53
2022/11/16 02:40:04;;;;;;;46.60;28.57;;;6.10;1.00;;;;;;6296348;28;20232;-52
2022/11/16 02:43:09;;;;;;;48.07;29.10;;;6.20;1.00;;;;;;6293264;28;20244;-53
2022/11/16 02:46:21;;;;;;;54.97;29.07;;;6.10;1.00;;;;;;6284617;28;20762;-53
2022/11/16 02:49:25;;;;;;;49.70;29.37;;;6.10;1.00;;;;;;6290411;28;20236;-53
2022/11/16 02:52:29;;;;;;;52.97;28.47;;;6.00;1.00;;;;;;6284919;28;20237;-54
2022/11/16 02:55:34;;;;;;;49.43;29.33;;;6.00;1.00;;;;;;6296317;28;20255;-51
2022/11/16 02:58:39;;;;;;;53.53;30.53;;;5.80;1.00;;;;;;6306077;28;20232;-52
2022/11/16 03:01:50;;;;;;;50.97;31.37;;;6.00;1.00;;;;;;6301228;28;20255;-51
2022/11/16 03:04:59;;;;;;;53.97;30.37;;;5.90;1.00;;;;;;6309299;28;20240;-55
2022/11/16 03:08:09;;;;;;;55.83;31.67;;;5.80;1.00;;;;;;6299768;28;20245;-53
2022/11/16 03:14:37;;;;;;;51.27;30.30;;;5.60;1.00;;;;;;6283641;28;20242;-54
2022/11/16 03:17:46;;;;;;;57.83;31.37;;;5.70;1.00;;;;;;6282964;28;20256;-54
2022/11/16 03:20:53;;;;;;;56.30;33.17;;;6.00;1.00;;;;;;6282512;28;20601;-53
2022/11/16 03:23:57;;;;;;;60.83;31.83;;;5.90;1.00;;;;;;6281589;28;20400;-54
2022/11/16 03:27:06;;;;;;;57.67;31.20;;;5.90;1.00;;;;;;6282181;28;20233;-54
2022/11/16 03:30:13;;;;;;;58.90;31.60;;;5.80;1.00;;;;;;6289382;28;20809;-52
2022/11/16 03:33:22;;;;;;;53.13;32.77;;;5.90;1.00;;;;;;6282582;28;20244;-54
2022/11/16 03:36:30;;;;;;;53.07;31.83;;;6.00;1.00;;;;;;6282092;28;20237;-54
2022/11/16 03:39:37;;;;;;;55.43;33.27;;;6.00;1.00;;;;;;6275238;28;20393;-53
2022/11/16 03:42:42;;;;;;;55.00;34.17;;;5.90;1.00;;;;;;6291743;28;20385;-53
2022/11/16 03:45:47;;;;;;;59.83;33.57;;;6.00;1.00;;;;;;6313648;28;20233;-54
2022/11/16 03:48:57;;;;;;;63.47;36.27;;;6.00;1.00;;;;;;6306706;28;20233;-53
2022/11/16 03:51:59;;;;;;;67.57;36.60;;;6.00;1.00;;;;;;6278248;28;20248;-53
2022/11/16 03:55:03;;;;;;;67.17;37.30;;;6.00;1.00;;;;;;6280996;28;20244;-53
2022/11/16 03:58:06;;;;;;;66.40;37.60;;;5.80;1.00;;;;;;6283243;28;20686;-54
2022/11/16 04:01:08;;;;;;;70.67;37.97;;;6.20;1.00;;;;;;6302801;28;20236;-53
2022/11/16 04:24:10;;;;;;;69.60;38.70;;;6.20;1.00;;;;;;6295945;28;20387;-53
2022/11/16 04:24:57;;;;;;;77.40;39.47;;;6.30;1.00;;;;;;6286083;28;20245;-51
2022/11/16 04:28:16;;;;;;;69.40;38.67;;;6.20;1.00;;;;;;6291744;28;20751;-52
2022/11/16 04:38:10;;;;;;;73.33;38.97;;;6.00;1.00;;;;;;6290608;28;20479;-53
2022/11/16 04:47:51;;;;;;;80.87;39.47;;;6.00;1.00;;;;;;6294428;28;20226;-53
2022/11/16 04:50:54;;;;;;;82.60;38.83;;;6.30;1.00;;;;;;6284966;28;20233;-53
2022/11/16 04:53:58;;;;;;;83.70;38.07;;;6.20;1.00;;;;;;6300810;28;20608;-52
2022/11/16 04:57:02;;;;;;;75.43;38.20;;;6.30;1.00;;;;;;6288011;28;20237;-53
2022/11/16 05:00:12;;;;;;;80.03;38.97;;;6.40;1.00;;;;;;6292140;27;20710;-54
2022/11/16 05:03:15;;;;;;;91.10;38.87;;;6.30;1.00;;;;;;6304356;28;20713;-53
2022/11/16 05:06:21;;;;;;;87.97;39.57;;;6.30;1.00;;;;;;6285245;28;20237;-54
2022/11/16 05:09:26;;;;;;;84.03;38.10;;;6.20;1.00;;;;;;6291006;28;20245;-53
2022/11/16 05:12:29;;;;;;;92.20;39.83;;;6.30;1.00;;;;;;6286671;28;20244;-54
2022/11/16 05:15:32;;;;;;;91.20;40.67;;;6.40;1.00;;;;;;6283165;28;20256;-52
2022/11/16 05:18:35;;;;;;;97.20;41.60;;;6.40;1.00;;;;;;6299802;28;20255;-52
2022/11/16 05:21:37;;;;;;;90.73;41.17;;;6.60;1.00;;;;;;6301263;28;20236;-54
2022/11/16 05:24:42;;;;;;;90.13;39.90;;;6.40;1.00;;;;;;6301210;28;20376;-52
2022/11/16 05:27:45;;;;;;;94.60;41.70;;;6.50;1.00;;;;;;6285214;28;20236;-54
2022/11/16 05:30:48;;;;;;;93.90;39.97;;;6.50;1.00;;;;;;6283459;28;20237;-54
2022/11/16 05:33:52;;;;;;;97.87;43.63;;;6.40;1.00;;;;;;6289938;28;20359;-53
2022/11/16 05:36:55;;;;;;;93.80;40.73;;;6.60;1.00;;;;;;6286893;28;20243;-54
2022/11/16 05:40:00;;;;;;;99.80;42.07;;;6.50;1.00;;;;;;6286416;28;20221;-53
2022/11/16 05:43:03;;;;;;;96.73;42.53;;;6.50;1.00;;;;;;6296309;28;20765;-51
2022/11/16 05:46:12;;;;;;;94.27;41.50;;;6.50;1.00;;;;;;6304601;28;20231;-53
2022/11/16 05:49:15;;;;;;;105.40;42.77;;;6.70;1.00;;;;;;6296512;28;20442;-53
2022/11/16 05:52:18;;;;;;;97.80;41.53;;;6.70;1.00;;;;;;6296973;28;20242;-54
2022/11/16 05:55:23;;;;;;;106.43;43.03;;;6.70;1.00;;;;;;6283880;28;20621;-53
2022/11/16 05:58:27;;;;;;;88.77;42.60;;;6.50;1.00;;;;;;6290988;28;20318;-54
